sensor_id;sensor_type;location;lat;lon;timestamp;temperature;humidity
35445;DHT22;21562;49.476;6.086;2022-09-28T00:01:53;10.80;99.90
35445;DHT22;21562;49.476;6.086;2022-09-28T00:04:19;10.90;99.90
35445;DHT22;21562;49.476;6.086;2022-09-28T00:06:46;11.10;99.90
35445;DHT22;21562;49.476;6.086;2022-09-28T00:09:15;11.30;99.90
35445;DHT22;21562;49.476;6.086;2022-09-28T00:11:41;11.30;99.90
35445;DHT22;21562;49.476;6.086;2022-09-28T00:14:08;11.20;99.90
35445;DHT22;21562;49.476;6.086;2022-09-28T00:16:44;11.00;99.90
35445;DHT22;21562;49.476;6.086;2022-09-28T00:19:10;11.10;99.90
35445;DHT22;21562;49.476;6.086;2022-09-28T00:21:38;11.00;99.90
35445;DHT22;21562;49.476;6.086;2022-09-28T00:24:06;11.10;99.90
35445;DHT22;21562;49.476;6.086;2022-09-28T00:26:58;10.80;99.90
35445;DHT22;21562;49.476;6.086;2022-09-28T00:29:34;10.90;99.90
35445;DHT22;21562;49.476;6.086;2022-09-28T00:32:05;10.90;99.90
35445;DHT22;21562;49.476;6.086;2022-09-28T00:34:33;10.90;99.90
35445;DHT22;21562;49.476;6.086;2022-09-28T00:37:00;10.90;99.90
35445;DHT22;21562;49.476;6.086;2022-09-28T00:39:27;10.90;99.90
35445;DHT22;21562;49.476;6.086;2022-09-28T00:41:54;11.00;99.90
35445;DHT22;21562;49.476;6.086;2022-09-28T00:47:05;11.20;99.90
35445;DHT22;21562;49.476;6.086;2022-09-28T00:52:21;11.10;99.90
35445;DHT22;21562;49.476;6.086;2022-09-28T00:54:58;11.00;99.90
35445;DHT22;21562;49.476;6.086;2022-09-28T00:57:26;11.10;99.90
35445;DHT22;21562;49.476;6.086;2022-09-28T00:59:53;11.10;99.90
35445;DHT22;21562;49.476;6.086;2022-09-28T01:02:20;11.10;99.90
35445;DHT22;21562;49.476;6.086;2022-09-28T01:04:46;11.20;99.90
35445;DHT22;21562;49.476;6.086;2022-09-28T01:07:13;11.10;99.90
35445;DHT22;21562;49.476;6.086;2022-09-28T01:09:40;11.10;99.90
35445;DHT22;21562;49.476;6.086;2022-09-28T01:12:09;11.00;99.90
35445;DHT22;21562;49.476;6.086;2022-09-28T01:14:35;11.10;99.90
35445;DHT22;21562;49.476;6.086;2022-09-28T01:17:06;11.00;99.90
35445;DHT22;21562;49.476;6.086;2022-09-28T01:25:17;11.30;99.90
35445;DHT22;21562;49.476;6.086;2022-09-28T01:27:53;11.40;99.90
35445;DHT22;21562;49.476;6.086;2022-09-28T01:30:20;11.20;99.90
35445;DHT22;21562;49.476;6.086;2022-09-28T01:32:55;11.10;99.90
35445;DHT22;21562;49.476;6.086;2022-09-28T01:35:28;11.20;99.90
35445;DHT22;21562;49.476;6.086;2022-09-28T01:38:29;11.20;99.90
35445;DHT22;21562;49.476;6.086;2022-09-28T01:40:58;11.10;99.90
35445;DHT22;21562;49.476;6.086;2022-09-28T01:43:26;11.00;99.90
35445;DHT22;21562;49.476;6.086;2022-09-28T01:46:13;11.00;99.90
35445;DHT22;21562;49.476;6.086;2022-09-28T01:48:57;11.00;99.90
35445;DHT22;21562;49.476;6.086;2022-09-28T01:51:35;11.10;99.90
35445;DHT22;21562;49.476;6.086;2022-09-28T01:54:16;11.10;99.90
35445;DHT22;21562;49.476;6.086;2022-09-28T01:56:49;10.90;99.90
35445;DHT22;21562;49.476;6.086;2022-09-28T01:59:18;11.00;99.90
35445;DHT22;21562;49.476;6.086;2022-09-28T02:02:09;11.10;99.90
35445;DHT22;21562;49.476;6.086;2022-09-28T02:04:49;11.10;99.90
35445;DHT22;21562;49.476;6.086;2022-09-28T02:07:26;11.30;99.90
35445;DHT22;21562;49.476;6.086;2022-09-28T02:09:58;11.30;99.90
35445;DHT22;21562;49.476;6.086;2022-09-28T02:12:38;11.60;99.90
35445;DHT22;21562;49.476;6.086;2022-09-28T02:18:03;11.40;99.90
35445;DHT22;21562;49.476;6.086;2022-09-28T02:20:31;11.30;99.90
35445;DHT22;21562;49.476;6.086;2022-09-28T02:22:58;11.30;99.90
35445;DHT22;21562;49.476;6.086;2022-09-28T02:30:24;10.70;99.90
35445;DHT22;21562;49.476;6.086;2022-09-28T02:32:52;10.70;99.90
35445;DHT22;21562;49.476;6.086;2022-09-28T02:35:19;10.80;99.90
35445;DHT22;21562;49.476;6.086;2022-09-28T02:37:46;10.80;99.90
35445;DHT22;21562;49.476;6.086;2022-09-28T02:40:19;11.00;99.90
35445;DHT22;21562;49.476;6.086;2022-09-28T02:51:10;10.90;99.90
35445;DHT22;21562;49.476;6.086;2022-09-28T03:07:57;10.80;99.90
35445;DHT22;21562;49.476;6.086;2022-09-28T03:13:04;10.90;99.90
35445;DHT22;21562;49.476;6.086;2022-09-28T03:15:32;11.10;99.90
35445;DHT22;21562;49.476;6.086;2022-09-28T03:17:58;11.20;99.90
35445;DHT22;21562;49.476;6.086;2022-09-28T03:20:25;11.00;99.90
35445;DHT22;21562;49.476;6.086;2022-09-28T03:22:51;11.00;99.90
35445;DHT22;21562;49.476;6.086;2022-09-28T03:25:17;11.10;99.90
35445;DHT22;21562;49.476;6.086;2022-09-28T03:27:43;11.10;99.90
35445;DHT22;21562;49.476;6.086;2022-09-28T03:30:10;11.10;99.90
35445;DHT22;21562;49.476;6.086;2022-09-28T03:32:36;11.10;99.90
35445;DHT22;21562;49.476;6.086;2022-09-28T03:35:03;11.10;99.90
35445;DHT22;21562;49.476;6.086;2022-09-28T03:37:29;10.90;99.90
35445;DHT22;21562;49.476;6.086;2022-09-28T03:39:55;10.50;99.90
35445;DHT22;21562;49.476;6.086;2022-09-28T03:42:21;10.50;99.90
35445;DHT22;21562;49.476;6.086;2022-09-28T03:44:46;10.60;99.90
35445;DHT22;21562;49.476;6.086;2022-09-28T03:47:12;10.80;99.90
35445;DHT22;21562;49.476;6.086;2022-09-28T03:49:40;10.60;99.90
35445;DHT22;21562;49.476;6.086;2022-09-28T03:52:06;10.70;99.90
35445;DHT22;21562;49.476;6.086;2022-09-28T03:54:31;10.60;99.90
35445;DHT22;21562;49.476;6.086;2022-09-28T03:56:57;10.70;99.90
35445;DHT22;21562;49.476;6.086;2022-09-28T03:59:23;10.50;99.90
35445;DHT22;21562;49.476;6.086;2022-09-28T04:01:49;10.20;99.90
35445;DHT22;21562;49.476;6.086;2022-09-28T04:04:15;10.10;99.90
35445;DHT22;21562;49.476;6.086;2022-09-28T04:06:40;10.10;99.90
35445;DHT22;21562;49.476;6.086;2022-09-28T04:09:06;10.20;99.90
35445;DHT22;21562;49.476;6.086;2022-09-28T04:11:32;10.20;99.90
35445;DHT22;21562;49.476;6.086;2022-09-28T04:13:58;10.10;99.90
35445;DHT22;21562;49.476;6.086;2022-09-28T04:16:24;10.30;99.90
35445;DHT22;21562;49.476;6.086;2022-09-28T04:18:50;10.30;99.90
35445;DHT22;21562;49.476;6.086;2022-09-28T04:21:17;10.60;99.90
35445;DHT22;21562;49.476;6.086;2022-09-28T04:23:44;10.70;99.90
35445;DHT22;21562;49.476;6.086;2022-09-28T04:28:44;11.00;99.90
35445;DHT22;21562;49.476;6.086;2022-09-28T04:31:29;11.10;99.90
35445;DHT22;21562;49.476;6.086;2022-09-28T04:33:56;11.10;99.90
35445;DHT22;21562;49.476;6.086;2022-09-28T04:36:22;11.10;99.90
35445;DHT22;21562;49.476;6.086;2022-09-28T04:38:51;11.30;99.90
35445;DHT22;21562;49.476;6.086;2022-09-28T04:41:16;11.10;99.90
35445;DHT22;21562;49.476;6.086;2022-09-28T04:43:42;10.70;99.90
35445;DHT22;21562;49.476;6.086;2022-09-28T04:46:10;10.50;99.90
35445;DHT22;21562;49.476;6.086;2022-09-28T04:48:36;10.40;99.90
35445;DHT22;21562;49.476;6.086;2022-09-28T04:51:03;10.30;99.90
35445;DHT22;21562;49.476;6.086;2022-09-28T04:53:29;10.50;99.90
35445;DHT22;21562;49.476;6.086;2022-09-28T04:56:05;10.60;99.90
35445;DHT22;21562;49.476;6.086;2022-09-28T04:58:33;10.70;99.90
35445;DHT22;21562;49.476;6.086;2022-09-28T05:01:01;10.60;99.90
35445;DHT22;21562;49.476;6.086;2022-09-28T05:03:27;10.50;99.90
35445;DHT22;21562;49.476;6.086;2022-09-28T05:05:53;10.30;99.90
35445;DHT22;21562;49.476;6.086;2022-09-28T05:08:19;10.20;99.90
35445;DHT22;21562;49.476;6.086;2022-09-28T05:10:45;10.00;99.90
35445;DHT22;21562;49.476;6.086;2022-09-28T05:13:12;10.00;99.90
35445;DHT22;21562;49.476;6.086;2022-09-28T05:15:40;9.80;99.90
35445;DHT22;21562;49.476;6.086;2022-09-28T05:18:07;10.00;99.90
35445;DHT22;21562;49.476;6.086;2022-09-28T05:20:33;10.10;99.90
35445;DHT22;21562;49.476;6.086;2022-09-28T05:22:59;10.10;99.90
35445;DHT22;21562;49.476;6.086;2022-09-28T05:25:25;10.10;99.90
35445;DHT22;21562;49.476;6.086;2022-09-28T05:27:54;10.10;99.90
35445;DHT22;21562;49.476;6.086;2022-09-28T05:30:21;10.20;99.90
35445;DHT22;21562;49.476;6.086;2022-09-28T05:32:47;10.00;99.90
35445;DHT22;21562;49.476;6.086;2022-09-28T05:35:15;10.10;99.90
35445;DHT22;21562;49.476;6.086;2022-09-28T05:37:42;10.10;99.90
35445;DHT22;21562;49.476;6.086;2022-09-28T05:40:08;10.10;99.90
35445;DHT22;21562;49.476;6.086;2022-09-28T05:42:34;10.20;99.90
35445;DHT22;21562;49.476;6.086;2022-09-28T05:45:00;10.20;99.90
35445;DHT22;21562;49.476;6.086;2022-09-28T05:47:28;9.90;99.90
35445;DHT22;21562;49.476;6.086;2022-09-28T05:49:54;9.80;99.90
35445;DHT22;21562;49.476;6.086;2022-09-28T05:52:20;10.00;99.90
35445;DHT22;21562;49.476;6.086;2022-09-28T05:54:46;9.90;99.90
35445;DHT22;21562;49.476;6.086;2022-09-28T05:57:13;10.10;99.90
35445;DHT22;21562;49.476;6.086;2022-09-28T05:59:39;10.20;99.90
35445;DHT22;21562;49.476;6.086;2022-09-28T06:02:06;10.30;99.90
35445;DHT22;21562;49.476;6.086;2022-09-28T06:04:31;10.40;99.90
35445;DHT22;21562;49.476;6.086;2022-09-28T06:06:58;10.50;99.90
35445;DHT22;21562;49.476;6.086;2022-09-28T06:09:24;10.20;99.90
35445;DHT22;21562;49.476;6.086;2022-09-28T06:11:50;10.40;99.90
35445;DHT22;21562;49.476;6.086;2022-09-28T06:14:16;10.50;99.90
35445;DHT22;21562;49.476;6.086;2022-09-28T06:16:42;10.50;99.90
35445;DHT22;21562;49.476;6.086;2022-09-28T06:19:08;10.30;99.90
35445;DHT22;21562;49.476;6.086;2022-09-28T06:21:34;10.20;99.90
35445;DHT22;21562;49.476;6.086;2022-09-28T06:24:00;10.30;99.90
35445;DHT22;21562;49.476;6.086;2022-09-28T06:26:26;10.40;99.90
35445;DHT22;21562;49.476;6.086;2022-09-28T06:28:52;10.60;99.90
35445;DHT22;21562;49.476;6.086;2022-09-28T06:31:18;10.60;99.90
35445;DHT22;21562;49.476;6.086;2022-09-28T06:33:49;10.50;99.90
35445;DHT22;21562;49.476;6.086;2022-09-28T06:36:15;10.40;99.90
35445;DHT22;21562;49.476;6.086;2022-09-28T06:38:41;10.10;99.90
35445;DHT22;21562;49.476;6.086;2022-09-28T06:41:07;10.20;99.90
35445;DHT22;21562;49.476;6.086;2022-09-28T06:43:33;10.10;99.90
35445;DHT22;21562;49.476;6.086;2022-09-28T06:46:01;10.10;99.90
35445;DHT22;21562;49.476;6.086;2022-09-28T06:48:27;10.30;99.90
35445;DHT22;21562;49.476;6.086;2022-09-28T06:50:52;10.60;99.90
35445;DHT22;21562;49.476;6.086;2022-09-28T06:53:18;10.80;99.90
35445;DHT22;21562;49.476;6.086;2022-09-28T06:55:45;11.00;99.90
35445;DHT22;21562;49.476;6.086;2022-09-28T06:58:16;10.80;99.90
35445;DHT22;21562;49.476;6.086;2022-09-28T07:00:42;10.90;99.90
35445;DHT22;21562;49.476;6.086;2022-09-28T07:03:16;10.60;99.90
35445;DHT22;21562;49.476;6.086;2022-09-28T07:05:44;10.70;99.90
35445;DHT22;21562;49.476;6.086;2022-09-28T07:08:10;10.80;99.90
35445;DHT22;21562;49.476;6.086;2022-09-28T07:10:44;10.70;99.90
35445;DHT22;21562;49.476;6.086;2022-09-28T07:13:11;10.50;99.90
35445;DHT22;21562;49.476;6.086;2022-09-28T07:15:38;10.60;99.90
35445;DHT22;21562;49.476;6.086;2022-09-28T07:18:06;10.40;99.90
35445;DHT22;21562;49.476;6.086;2022-09-28T07:20:33;10.20;99.90
35445;DHT22;21562;49.476;6.086;2022-09-28T07:23:01;10.20;99.90
35445;DHT22;21562;49.476;6.086;2022-09-28T07:25:28;10.40;99.90
35445;DHT22;21562;49.476;6.086;2022-09-28T07:27:58;10.50;99.90
35445;DHT22;21562;49.476;6.086;2022-09-28T07:30:29;10.60;99.90
35445;DHT22;21562;49.476;6.086;2022-09-28T07:32:57;10.50;99.90
35445;DHT22;21562;49.476;6.086;2022-09-28T07:35:23;10.70;99.90
35445;DHT22;21562;49.476;6.086;2022-09-28T07:37:56;10.70;99.90
35445;DHT22;21562;49.476;6.086;2022-09-28T07:40:25;10.80;99.90
35445;DHT22;21562;49.476;6.086;2022-09-28T07:43:09;10.80;99.90
35445;DHT22;21562;49.476;6.086;2022-09-28T07:45:34;10.90;99.90
35445;DHT22;21562;49.476;6.086;2022-09-28T07:48:02;10.80;99.90
35445;DHT22;21562;49.476;6.086;2022-09-28T07:50:28;10.70;99.90
35445;DHT22;21562;49.476;6.086;2022-09-28T07:52:55;10.70;99.90
35445;DHT22;21562;49.476;6.086;2022-09-28T07:55:21;10.70;99.90
35445;DHT22;21562;49.476;6.086;2022-09-28T07:57:53;10.70;99.90
35445;DHT22;21562;49.476;6.086;2022-09-28T08:00:20;10.70;99.90
35445;DHT22;21562;49.476;6.086;2022-09-28T08:02:46;10.90;99.90
35445;DHT22;21562;49.476;6.086;2022-09-28T08:05:12;11.10;99.90
35445;DHT22;21562;49.476;6.086;2022-09-28T08:07:38;11.30;99.90
35445;DHT22;21562;49.476;6.086;2022-09-28T08:10:04;10.90;99.90
35445;DHT22;21562;49.476;6.086;2022-09-28T08:12:31;10.90;99.90
35445;DHT22;21562;49.476;6.086;2022-09-28T08:14:57;11.00;99.90
35445;DHT22;21562;49.476;6.086;2022-09-28T08:17:24;11.20;99.90
35445;DHT22;21562;49.476;6.086;2022-09-28T08:19:50;11.40;99.90
35445;DHT22;21562;49.476;6.086;2022-09-28T08:22:34;11.40;99.90
35445;DHT22;21562;49.476;6.086;2022-09-28T08:25:01;11.50;99.90
35445;DHT22;21562;49.476;6.086;2022-09-28T08:27:27;11.60;99.90
35445;DHT22;21562;49.476;6.086;2022-09-28T08:29:53;11.90;99.90
35445;DHT22;21562;49.476;6.086;2022-09-28T08:32:18;11.50;99.90
35445;DHT22;21562;49.476;6.086;2022-09-28T08:34:45;11.50;99.90
35445;DHT22;21562;49.476;6.086;2022-09-28T08:37:10;11.50;99.90
35445;DHT22;21562;49.476;6.086;2022-09-28T08:39:36;11.70;99.90
35445;DHT22;21562;49.476;6.086;2022-09-28T08:44:54;11.90;99.90
35445;DHT22;21562;49.476;6.086;2022-09-28T08:47:28;12.00;99.90
35445;DHT22;21562;49.476;6.086;2022-09-28T08:50:19;12.00;99.90
35445;DHT22;21562;49.476;6.086;2022-09-28T08:52:52;11.90;99.90
35445;DHT22;21562;49.476;6.086;2022-09-28T08:55:29;12.00;99.90
35445;DHT22;21562;49.476;6.086;2022-09-28T08:58:04;11.90;99.90
35445;DHT22;21562;49.476;6.086;2022-09-28T09:00:50;12.20;99.90
35445;DHT22;21562;49.476;6.086;2022-09-28T09:03:35;12.00;99.90
35445;DHT22;21562;49.476;6.086;2022-09-28T09:06:17;12.20;99.90
35445;DHT22;21562;49.476;6.086;2022-09-28T09:09:06;12.30;99.90
35445;DHT22;21562;49.476;6.086;2022-09-28T09:17:21;12.40;99.90
35445;DHT22;21562;49.476;6.086;2022-09-28T09:22:59;12.70;99.90
35445;DHT22;21562;49.476;6.086;2022-09-28T09:25:49;12.80;99.90
35445;DHT22;21562;49.476;6.086;2022-09-28T09:39:51;11.90;99.90
35445;DHT22;21562;49.476;6.086;2022-09-28T09:42:42;11.90;99.90
35445;DHT22;21562;49.476;6.086;2022-09-28T09:45:27;11.90;99.90
35445;DHT22;21562;49.476;6.086;2022-09-28T09:48:02;12.30;99.90
35445;DHT22;21562;49.476;6.086;2022-09-28T09:55:46;12.70;99.90
35445;DHT22;21562;49.476;6.086;2022-09-28T09:58:50;12.80;99.90
35445;DHT22;21562;49.476;6.086;2022-09-28T10:01:20;12.70;99.90
35445;DHT22;21562;49.476;6.086;2022-09-28T10:03:47;12.70;99.90
35445;DHT22;21562;49.476;6.086;2022-09-28T10:06:29;12.90;99.90
35445;DHT22;21562;49.476;6.086;2022-09-28T10:09:09;12.60;99.90
35445;DHT22;21562;49.476;6.086;2022-09-28T10:11:45;12.70;99.90
35445;DHT22;21562;49.476;6.086;2022-09-28T10:14:16;12.30;99.90
35445;DHT22;21562;49.476;6.086;2022-09-28T10:16:43;12.40;99.90
35445;DHT22;21562;49.476;6.086;2022-09-28T10:19:11;12.80;99.90
35445;DHT22;21562;49.476;6.086;2022-09-28T10:21:38;13.10;99.90
35445;DHT22;21562;49.476;6.086;2022-09-28T10:24:15;13.40;99.90
35445;DHT22;21562;49.476;6.086;2022-09-28T10:26:47;13.90;99.90
35445;DHT22;21562;49.476;6.086;2022-09-28T10:29:22;13.50;99.90
35445;DHT22;21562;49.476;6.086;2022-09-28T10:31:51;12.80;99.90
35445;DHT22;21562;49.476;6.086;2022-09-28T10:34:25;12.60;99.90
35445;DHT22;21562;49.476;6.086;2022-09-28T10:37:00;12.50;99.90
35445;DHT22;21562;49.476;6.086;2022-09-28T10:39:58;12.20;99.90
35445;DHT22;21562;49.476;6.086;2022-09-28T10:42:31;12.30;99.90
35445;DHT22;21562;49.476;6.086;2022-09-28T10:45:21;12.50;99.90
35445;DHT22;21562;49.476;6.086;2022-09-28T10:47:48;13.10;99.90
35445;DHT22;21562;49.476;6.086;2022-09-28T10:50:23;13.40;99.90
35445;DHT22;21562;49.476;6.086;2022-09-28T10:52:49;13.50;99.90
35445;DHT22;21562;49.476;6.086;2022-09-28T10:55:30;13.60;99.90
35445;DHT22;21562;49.476;6.086;2022-09-28T10:57:58;13.50;99.90
35445;DHT22;21562;49.476;6.086;2022-09-28T11:02:58;14.20;99.90
35445;DHT22;21562;49.476;6.086;2022-09-28T11:05:25;13.70;99.90
35445;DHT22;21562;49.476;6.086;2022-09-28T11:07:56;13.20;99.90
35445;DHT22;21562;49.476;6.086;2022-09-28T11:10:29;13.10;99.90
35445;DHT22;21562;49.476;6.086;2022-09-28T11:12:57;13.40;99.90
35445;DHT22;21562;49.476;6.086;2022-09-28T11:15:29;13.50;99.90
35445;DHT22;21562;49.476;6.086;2022-09-28T11:17:55;13.40;99.90
35445;DHT22;21562;49.476;6.086;2022-09-28T11:23:16;14.30;99.90
35445;DHT22;21562;49.476;6.086;2022-09-28T11:25:43;14.40;99.90
35445;DHT22;21562;49.476;6.086;2022-09-28T11:28:26;14.60;99.90
35445;DHT22;21562;49.476;6.086;2022-09-28T11:30:54;14.60;99.90
35445;DHT22;21562;49.476;6.086;2022-09-28T11:33:29;14.70;99.90
35445;DHT22;21562;49.476;6.086;2022-09-28T11:35:58;14.60;99.90
35445;DHT22;21562;49.476;6.086;2022-09-28T11:40:58;14.90;99.90
35445;DHT22;21562;49.476;6.086;2022-09-28T11:52:53;14.10;99.90
35445;DHT22;21562;49.476;6.086;2022-09-28T11:58:21;14.30;99.90
35445;DHT22;21562;49.476;6.086;2022-09-28T12:03:55;14.50;99.90
35445;DHT22;21562;49.476;6.086;2022-09-28T12:06:32;14.10;99.90
35445;DHT22;21562;49.476;6.086;2022-09-28T12:09:06;13.70;99.90
35445;DHT22;21562;49.476;6.086;2022-09-28T12:11:38;13.70;99.90
35445;DHT22;21562;49.476;6.086;2022-09-28T12:14:17;13.70;99.90
35445;DHT22;21562;49.476;6.086;2022-09-28T12:16:49;14.10;99.90
35445;DHT22;21562;49.476;6.086;2022-09-28T12:19:31;14.20;99.90
35445;DHT22;21562;49.476;6.086;2022-09-28T12:24:56;14.40;99.90
35445;DHT22;21562;49.476;6.086;2022-09-28T12:32:47;14.00;99.90
35445;DHT22;21562;49.476;6.086;2022-09-28T12:36:06;13.90;99.90
35445;DHT22;21562;49.476;6.086;2022-09-28T12:45:04;14.40;99.90
35445;DHT22;21562;49.476;6.086;2022-09-28T12:56:08;14.10;99.90
35445;DHT22;21562;49.476;6.086;2022-09-28T13:10:25;15.00;99.90
35445;DHT22;21562;49.476;6.086;2022-09-28T13:19:22;15.20;99.90
35445;DHT22;21562;49.476;6.086;2022-09-28T13:24:08;15.70;99.90
35445;DHT22;21562;49.476;6.086;2022-09-28T13:26:40;16.10;99.90
35445;DHT22;21562;49.476;6.086;2022-09-28T13:29:17;16.10;99.90
35445;DHT22;21562;49.476;6.086;2022-09-28T13:31:52;15.60;99.90
35445;DHT22;21562;49.476;6.086;2022-09-28T13:34:21;15.80;99.90
35445;DHT22;21562;49.476;6.086;2022-09-28T13:59:23;15.80;99.90
35445;DHT22;21562;49.476;6.086;2022-09-28T14:02:14;15.80;99.90
35445;DHT22;21562;49.476;6.086;2022-09-28T14:05:05;16.30;99.90
35445;DHT22;21562;49.476;6.086;2022-09-28T14:08:17;16.20;99.90
35445;DHT22;21562;49.476;6.086;2022-09-28T14:10:49;16.90;99.90
35445;DHT22;21562;49.476;6.086;2022-09-28T14:16:23;16.10;99.90
35445;DHT22;21562;49.476;6.086;2022-09-28T14:19:12;16.00;99.90
35445;DHT22;21562;49.476;6.086;2022-09-28T14:32:41;16.40;99.80
35445;DHT22;21562;49.476;6.086;2022-09-28T14:37:47;16.10;99.90
35445;DHT22;21562;49.476;6.086;2022-09-28T14:41:51;16.10;99.90
35445;DHT22;21562;49.476;6.086;2022-09-28T14:48:51;15.60;99.90
35445;DHT22;21562;49.476;6.086;2022-09-28T14:54:25;15.90;99.90
35445;DHT22;21562;49.476;6.086;2022-09-28T15:04:47;14.80;99.90
35445;DHT22;21562;49.476;6.086;2022-09-28T15:07:50;16.40;99.90
35445;DHT22;21562;49.476;6.086;2022-09-28T15:10:43;16.30;99.90
35445;DHT22;21562;49.476;6.086;2022-09-28T15:13:19;15.30;99.90
35445;DHT22;21562;49.476;6.086;2022-09-28T15:15:48;15.40;99.90
35445;DHT22;21562;49.476;6.086;2022-09-28T15:20:49;16.00;99.90
35445;DHT22;21562;49.476;6.086;2022-09-28T15:23:35;15.60;99.90
35445;DHT22;21562;49.476;6.086;2022-09-28T15:26:03;15.30;99.90
35445;DHT22;21562;49.476;6.086;2022-09-28T15:28:42;15.60;99.90
35445;DHT22;21562;49.476;6.086;2022-09-28T15:31:17;15.80;99.90
35445;DHT22;21562;49.476;6.086;2022-09-28T15:33:43;16.30;99.90
35445;DHT22;21562;49.476;6.086;2022-09-28T15:36:41;16.10;99.90
35445;DHT22;21562;49.476;6.086;2022-09-28T15:39:46;16.60;99.90
35445;DHT22;21562;49.476;6.086;2022-09-28T15:42:05;16.70;99.90
35445;DHT22;21562;49.476;6.086;2022-09-28T15:44:33;16.40;99.90
35445;DHT22;21562;49.476;6.086;2022-09-28T15:52:33;17.60;99.90
35445;DHT22;21562;49.476;6.086;2022-09-28T15:57:42;17.50;99.90
35445;DHT22;21562;49.476;6.086;2022-09-28T16:00:27;17.70;99.90
35445;DHT22;21562;49.476;6.086;2022-09-28T16:06:03;17.50;99.90
35445;DHT22;21562;49.476;6.086;2022-09-28T16:11:18;17.50;99.90
35445;DHT22;21562;49.476;6.086;2022-09-28T16:13:59;17.50;99.90
35445;DHT22;21562;49.476;6.086;2022-09-28T16:16:29;17.70;99.90
35445;DHT22;21562;49.476;6.086;2022-09-28T16:19:00;17.40;99.90
35445;DHT22;21562;49.476;6.086;2022-09-28T16:21:44;17.10;99.90
35445;DHT22;21562;49.476;6.086;2022-09-28T16:24:26;16.80;99.90
35445;DHT22;21562;49.476;6.086;2022-09-28T16:35:49;14.90;99.90
35445;DHT22;21562;49.476;6.086;2022-09-28T16:38:16;14.30;99.90
35445;DHT22;21562;49.476;6.086;2022-09-28T16:40:44;14.50;99.90
35445;DHT22;21562;49.476;6.086;2022-09-28T16:43:27;14.20;99.90
35445;DHT22;21562;49.476;6.086;2022-09-28T16:45:59;14.30;99.90
35445;DHT22;21562;49.476;6.086;2022-09-28T16:48:27;14.40;99.90
35445;DHT22;21562;49.476;6.086;2022-09-28T16:50:54;14.50;99.90
35445;DHT22;21562;49.476;6.086;2022-09-28T16:53:20;14.40;99.90
35445;DHT22;21562;49.476;6.086;2022-09-28T16:56:05;14.40;99.90
35445;DHT22;21562;49.476;6.086;2022-09-28T16:58:31;14.70;99.90
35445;DHT22;21562;49.476;6.086;2022-09-28T17:00:58;14.70;99.90
35445;DHT22;21562;49.476;6.086;2022-09-28T17:03:25;14.70;99.90
35445;DHT22;21562;49.476;6.086;2022-09-28T17:05:52;14.50;99.90
35445;DHT22;21562;49.476;6.086;2022-09-28T17:08:20;14.70;99.90
35445;DHT22;21562;49.476;6.086;2022-09-28T17:10:51;14.80;99.90
35445;DHT22;21562;49.476;6.086;2022-09-28T17:13:24;14.60;99.90
35445;DHT22;21562;49.476;6.086;2022-09-28T17:15:59;14.50;99.90
35445;DHT22;21562;49.476;6.086;2022-09-28T17:18:26;14.20;99.90
35445;DHT22;21562;49.476;6.086;2022-09-28T17:20:54;14.20;99.90
35445;DHT22;21562;49.476;6.086;2022-09-28T17:23:20;14.00;99.90
35445;DHT22;21562;49.476;6.086;2022-09-28T17:25:46;14.00;99.90
35445;DHT22;21562;49.476;6.086;2022-09-28T17:28:19;14.20;99.90
35445;DHT22;21562;49.476;6.086;2022-09-28T17:30:46;14.50;99.90
35445;DHT22;21562;49.476;6.086;2022-09-28T17:33:12;14.60;99.90
35445;DHT22;21562;49.476;6.086;2022-09-28T17:35:39;14.10;99.90
35445;DHT22;21562;49.476;6.086;2022-09-28T17:38:05;13.50;99.90
35445;DHT22;21562;49.476;6.086;2022-09-28T17:40:30;13.50;99.90
35445;DHT22;21562;49.476;6.086;2022-09-28T17:42:56;13.20;99.90
35445;DHT22;21562;49.476;6.086;2022-09-28T17:45:24;12.90;99.90
35445;DHT22;21562;49.476;6.086;2022-09-28T17:47:53;12.90;99.90
35445;DHT22;21562;49.476;6.086;2022-09-28T17:50:28;12.90;99.90
35445;DHT22;21562;49.476;6.086;2022-09-28T17:52:55;12.80;99.90
35445;DHT22;21562;49.476;6.086;2022-09-28T17:55:26;12.90;99.90
35445;DHT22;21562;49.476;6.086;2022-09-28T17:58:20;13.00;99.90
35445;DHT22;21562;49.476;6.086;2022-09-28T18:00:48;13.30;99.90
35445;DHT22;21562;49.476;6.086;2022-09-28T18:03:19;13.40;99.90
35445;DHT22;21562;49.476;6.086;2022-09-28T18:05:47;13.60;99.90
35445;DHT22;21562;49.476;6.086;2022-09-28T18:08:18;13.60;99.90
35445;DHT22;21562;49.476;6.086;2022-09-28T18:10:44;13.80;99.90
35445;DHT22;21562;49.476;6.086;2022-09-28T18:13:13;13.80;99.90
35445;DHT22;21562;49.476;6.086;2022-09-28T18:15:39;13.90;99.90
35445;DHT22;21562;49.476;6.086;2022-09-28T18:18:05;13.90;99.90
35445;DHT22;21562;49.476;6.086;2022-09-28T18:20:34;13.60;99.90
35445;DHT22;21562;49.476;6.086;2022-09-28T18:23:00;13.40;99.90
35445;DHT22;21562;49.476;6.086;2022-09-28T18:25:26;13.30;99.90
35445;DHT22;21562;49.476;6.086;2022-09-28T18:27:52;13.10;99.90
35445;DHT22;21562;49.476;6.086;2022-09-28T18:30:25;13.10;99.90
35445;DHT22;21562;49.476;6.086;2022-09-28T18:32:51;13.10;99.90
35445;DHT22;21562;49.476;6.086;2022-09-28T18:35:17;12.90;99.90
35445;DHT22;21562;49.476;6.086;2022-09-28T18:37:43;12.80;99.90
35445;DHT22;21562;49.476;6.086;2022-09-28T18:40:10;13.00;99.90
35445;DHT22;21562;49.476;6.086;2022-09-28T18:42:38;13.00;99.90
35445;DHT22;21562;49.476;6.086;2022-09-28T18:45:05;13.00;99.90
35445;DHT22;21562;49.476;6.086;2022-09-28T18:47:32;12.80;99.90
35445;DHT22;21562;49.476;6.086;2022-09-28T18:49:59;12.90;99.90
35445;DHT22;21562;49.476;6.086;2022-09-28T18:52:25;12.90;99.90
35445;DHT22;21562;49.476;6.086;2022-09-28T18:54:51;12.80;99.90
35445;DHT22;21562;49.476;6.086;2022-09-28T18:57:17;12.50;99.90
35445;DHT22;21562;49.476;6.086;2022-09-28T18:59:43;12.30;99.90
35445;DHT22;21562;49.476;6.086;2022-09-28T19:02:09;12.30;99.90
35445;DHT22;21562;49.476;6.086;2022-09-28T19:04:37;12.30;99.90
35445;DHT22;21562;49.476;6.086;2022-09-28T19:07:02;12.30;99.90
35445;DHT22;21562;49.476;6.086;2022-09-28T19:09:28;12.40;99.90
35445;DHT22;21562;49.476;6.086;2022-09-28T19:11:54;12.30;99.90
35445;DHT22;21562;49.476;6.086;2022-09-28T19:14:20;12.30;99.90
35445;DHT22;21562;49.476;6.086;2022-09-28T19:16:46;12.30;99.90
35445;DHT22;21562;49.476;6.086;2022-09-28T19:19:13;12.50;99.90
35445;DHT22;21562;49.476;6.086;2022-09-28T19:21:40;12.40;99.90
35445;DHT22;21562;49.476;6.086;2022-09-28T19:24:17;12.50;99.90
35445;DHT22;21562;49.476;6.086;2022-09-28T19:26:43;12.60;99.90
35445;DHT22;21562;49.476;6.086;2022-09-28T19:29:11;12.30;99.90
35445;DHT22;21562;49.476;6.086;2022-09-28T19:31:37;12.20;99.90
35445;DHT22;21562;49.476;6.086;2022-09-28T19:34:03;11.90;99.90
35445;DHT22;21562;49.476;6.086;2022-09-28T19:36:29;12.00;99.90